Time;durP1;ratioP1;P1;durP2;ratioP2;P2;SDS_P1;SDS_P2;PMS_P1;PMS_P2;Temp;Humidity;BMP_temperature;BMP_pressure;BME280_temperature;BME280_humidity;BME280_pressure;Samples;Min_cycle;Max_cycle;Signal;HPM_P1;HPM_P2
2023/08/24 09:24:26;;;;;;;;;;;;;;;;;;;;;
2023/08/24 09:28:04;;;;;;;2.72;1.73;;;;;;;;;;4365235;32;66747;-60
2023/08/24 09:31:47;;;;;;;;;;;;;;;;;;;;;
2023/08/24 09:34:59;;;;;;;2.47;1.58;;;;;;;;;;4365678;32;70343;-59
2023/08/24 09:37:51;;;;;;;3.15;1.70;;;;;;;;;;4359213;32;68677;-60
2023/08/24 09:40:56;;;;;;;2.95;1.98;;;;;;;;;;4369642;32;67993;-60
2023/08/24 09:43:45;;;;;;;3.55;1.92;;;;;;;;;;4369333;32;72064;-59
2023/08/24 09:46:39;;;;;;;2.05;1.75;;;;;;;;;;4369750;32;65978;-61
2023/08/24 09:49:34;;;;;;;2.37;1.92;;;;;;;;;;4367887;32;68497;-60
2023/08/24 09:52:28;;;;;;;2.47;1.65;;;;;;;;;;4369695;32;60282;-59
2023/08/24 09:55:23;;;;;;;3.28;1.83;;;;;;;;;;4368050;32;69572;-59
2023/08/24 09:58:13;;;;;;;3.00;1.90;;;;;;;;;;4369551;32;66099;-58
2023/08/24 10:01:23;;;;;;;2.47;1.50;;;;;;;;;;4368329;32;67859;-59
2023/08/24 10:06:03;;;;;;;;;;;;;;;;;;;;;
2023/08/24 10:24:58;;;;;;;2.58;1.90;;;;;;;;;;4302918;33;65625;-59
2023/08/24 10:28:49;;;;;;;3.15;2.03;;;;;;;;;;4307519;33;67756;-60
2023/08/24 10:32:00;;;;;;;;;;;;;;;;;;4289531;33;67527;-59
2023/08/24 10:35:27;;;;;;;2.08;1.75;;;;;;;;;;4300259;33;70932;-58
2023/08/24 10:39:02;;;;;;;;;;;;;;;;;;;;;
2023/08/24 10:44:06;;;;;;;;;;;;;;;;;;;;;
2023/08/24 10:58:50;;;;;;;3.12;1.62;;;;;;;;;;4290566;32;67302;-60
2023/08/24 11:02:44;;;;;;;2.47;1.50;;;;;;;;;;4352745;32;66721;-62
2023/08/24 11:06:02;;;;;;;2.25;1.50;;;;;;;;;;4369688;32;71373;-60
2023/08/24 11:10:42;;;;;;;;;;;;;;;;;;;;;
2023/08/24 11:14:51;;;;;;;3.65;1.50;;;;;;;;;;4307341;33;69509;-59
2023/08/24 11:18:31;;;;;;;2.92;1.95;;;;;;;;;;4364249;32;67777;-60
2023/08/24 11:21:43;;;;;;;1.52;1.35;;;;;;;;;;4370301;32;71016;-60
2023/08/24 11:25:00;;;;;;;2.28;1.45;;;;;;;;;;4368968;32;64955;-60
2023/08/24 11:28:50;;;;;;;5.25;3.10;;;;;;;;;;4368660;32;68539;-60
2023/08/24 11:31:49;;;;;;;;;;;;;;;;;;4368631;32;59994;-59
2023/08/24 11:35:27;;;;;;;2.33;1.70;;;;;;;;;;4368371;32;69407;-61
2023/08/24 11:38:47;;;;;;;2.58;1.65;;;;;;;;;;4367575;32;68476;-58
2023/08/24 11:41:58;;;;;;;3.72;1.60;;;;;;;;;;4357747;32;66969;-59
2023/08/24 11:44:48;;;;;;;2.28;1.70;;;;;;;;;;4368262;32;60160;-60
2023/08/24 11:47:46;;;;;;;7.30;3.33;;;;;;;;;;4366754;32;69337;-61
2023/08/24 11:50:48;;;;;;;;;;;;;;;;;;;;;
2023/08/24 11:53:46;;;;;;;10.25;3.58;;;;;;;;;;4366944;32;66799;-60
2023/08/24 11:56:59;;;;;;;5.40;2.60;;;;;;;;;;4356431;32;71709;-60
2023/08/24 11:59:49;;;;;;;4.93;2.62;;;;;;;;;;4368288;32;67152;-59
2023/08/24 12:03:01;;;;;;;10.32;3.20;;;;;;;;;;4366989;32;67049;-60
2023/08/24 12:05:56;;;;;;;6.50;3.12;;;;;;;;;;4366757;32;67962;-62
2023/08/24 12:08:56;;;;;;;4.53;2.37;;;;;;;;;;4366520;32;71885;-60
2023/08/24 12:11:48;;;;;;;8.70;2.42;;;;;;;;;;4367743;32;64910;-60
2023/08/24 12:14:44;;;;;;;4.90;1.98;;;;;;;;;;4367876;32;68136;-60
2023/08/24 12:17:43;;;;;;;2.47;1.90;;;;;;;;;;4357351;32;59292;-60
2023/08/24 12:23:12;;;;;;;3.30;2.15;;;;;;;;;;3847695;37;43563;-60
2023/08/24 12:26:20;;;;;;;5.85;2.17;;;;;;;;;;4411350;32;60103;-60
2023/08/24 12:29:15;;;;;;;5.45;2.37;;;;;;;;;;4410939;32;70417;-61
2023/08/24 12:32:23;;;;;;;7.82;2.72;;;;;;;;;;4410931;32;69287;-61
2023/08/24 12:35:14;;;;;;;4.00;2.53;;;;;;;;;;4398435;32;66698;-60
2023/08/24 12:38:20;;;;;;;4.77;2.60;;;;;;;;;;4391993;32;71664;-60
2023/08/24 12:41:15;;;;;;;11.25;4.00;;;;;;;;;;4399044;32;66190;-61
2023/08/24 12:44:12;;;;;;;5.95;2.37;;;;;;;;;;4398493;32;66519;-60
2023/08/24 12:47:18;;;;;;;4.53;2.40;;;;;;;;;;4410842;32;60075;-60
2023/08/24 12:50:19;;;;;;;5.30;2.30;;;;;;;;;;4412512;32;72029;-60
2023/08/24 12:53:14;;;;;;;2.83;1.77;;;;;;;;;;4395560;32;67410;-60
2023/08/24 12:56:16;;;;;;;9.23;2.70;;;;;;;;;;4399001;32;67514;-60
2023/08/24 12:59:08;;;;;;;4.85;2.50;;;;;;;;;;4400599;32;59831;-60
2023/08/24 13:02:21;;;;;;;7.82;3.03;;;;;;;;;;4389008;32;70254;-60
2023/08/24 13:05:13;;;;;;;4.47;1.90;;;;;;;;;;4410404;32;69369;-60
2023/08/24 13:08:07;;;;;;;3.00;1.90;;;;;;;;;;4412866;32;67818;-61
2023/08/24 13:10:56;;;;;;;;;;;;;;;;;;4396898;32;72122;-61
2023/08/24 13:14:03;;;;;;;3.15;2.15;;;;;;;;;;4411184;32;65129;-61
2023/08/24 13:17:18;;;;;;;2.42;1.80;;;;;;;;;;4410319;32;68488;-62
2023/08/24 13:20:22;;;;;;;2.58;2.10;;;;;;;;;;4374766;32;68374;-61
2023/08/24 13:23:33;;;;;;;2.28;1.90;;;;;;;;;;4399409;32;71678;-61
2023/08/24 13:26:50;;;;;;;3.28;1.77;;;;;;;;;;4400072;32;64976;-62
2023/08/24 13:29:45;;;;;;;3.67;1.73;;;;;;;;;;4398995;32;67411;-62
2023/08/24 13:32:41;;;;;;;2.17;1.58;;;;;;;;;;4410328;32;58703;-62
2023/08/24 13:35:47;;;;;;;3.35;1.85;;;;;;;;;;4399883;32;71754;-61
2023/08/24 13:39:03;;;;;;;5.05;2.30;;;;;;;;;;4399688;32;69427;-60
2023/08/24 13:42:05;;;;;;;2.47;1.55;;;;;;;;;;4385363;32;68580;-60
2023/08/24 13:45:05;;;;;;;3.40;2.05;;;;;;;;;;4399791;32;60117;-60
2023/08/24 13:48:39;;;;;;;2.75;1.92;;;;;;;;;;4388842;32;70418;-61
2023/08/24 13:51:38;;;;;;;2.67;2.00;;;;;;;;;;4374265;32;70428;-60
2023/08/24 13:54:51;;;;;;;2.05;1.60;;;;;;;;;;4388997;32;67736;-61
2023/08/24 13:57:56;;;;;;;2.33;1.70;;;;;;;;;;4375112;32;70883;-61
2023/08/24 14:01:10;;;;;;;2.17;1.98;;;;;;;;;;4388968;32;64882;-61
2023/08/24 14:04:28;;;;;;;;;;;;;;;;;;4391222;32;66760;-60
2023/08/24 14:07:43;;;;;;;2.35;1.90;;;;;;;;;;4399939;32;59593;-61
2023/08/24 14:10:48;;;;;;;3.05;1.85;;;;;;;;;;4388314;32;70797;-62
2023/08/24 14:13:47;;;;;;;3.05;1.90;;;;;;;;;;4365112;32;65379;-62
2023/08/24 14:16:41;;;;;;;2.95;2.08;;;;;;;;;;4388043;32;67484;-61
2023/08/24 14:19:40;;;;;;;2.55;2.00;;;;;;;;;;4400315;32;59410;-62
2023/08/24 14:22:36;;;;;;;3.03;1.92;;;;;;;;;;4398650;32;70483;-63
2023/08/24 14:25:46;;;;;;;4.37;2.10;;;;;;;;;;4384466;32;70630;-61
2023/08/24 14:29:11;;;;;;;3.40;2.20;;;;;;;;;;4377776;32;66747;-62
2023/08/24 14:32:22;;;;;;;2.90;1.83;;;;;;;;;;4387488;32;71844;-60
2023/08/24 14:35:29;;;;;;;2.72;1.83;;;;;;;;;;4399192;32;65083;-62
2023/08/24 14:38:15;;;;;;;2.40;1.80;;;;;;;;;;4399238;32;66659;-60
2023/08/24 14:41:15;;;;;;;4.30;2.08;;;;;;;;;;4399204;32;68462;-60
2023/08/24 14:44:11;;;;;;;2.65;1.60;;;;;;;;;;4387508;32;71735;-61
2023/08/24 14:47:14;;;;;;;2.80;1.58;;;;;;;;;;4388045;32;65955;-61
2023/08/24 14:50:14;;;;;;;2.37;1.90;;;;;;;;;;4374634;32;68430;-60
2023/08/24 14:53:07;;;;;;;3.17;1.80;;;;;;;;;;4399195;32;60133;-62
2023/08/24 14:56:15;;;;;;;3.35;1.83;;;;;;;;;;4387465;32;70465;-60
2023/08/24 14:59:13;;;;;;;1.83;1.60;;;;;;;;;;4398625;32;70610;-61
2023/08/24 15:02:15;;;;;;;3.95;1.87;;;;;;;;;;4387616;32;67664;-60
2023/08/24 15:05:09;;;;;;;6.57;1.80;;;;;;;;;;3841153;37;43017;-61
2023/08/24 15:08:20;;;;;;;2.45;1.75;;;;;;;;;;4395321;32;59368;-62
2023/08/24 15:11:29;;;;;;;2.75;2.03;;;;;;;;;;4394951;32;70816;-60
2023/08/24 15:14:30;;;;;;;4.35;1.92;;;;;;;;;;4380504;32;69478;-61
2023/08/24 15:17:41;;;;;;;3.78;2.10;;;;;;;;;;4381126;32;65192;-60
2023/08/24 15:20:57;;;;;;;1.67;1.58;;;;;;;;;;4375900;32;71752;-61
2023/08/24 15:23:56;;;;;;;;;;;;;;;;;;;;;
2023/08/24 15:27:03;;;;;;;2.62;1.95;;;;;;;;;;4397247;32;67746;-60
2023/08/24 15:30:23;;;;;;;3.58;2.45;;;;;;;;;;4400396;32;59335;-62
2023/08/24 15:33:15;;;;;;;2.90;2.10;;;;;;;;;;4395448;32;71632;-61
2023/08/24 15:36:09;;;;;;;2.47;1.70;;;;;;;;;;4395417;32;65855;-60
2023/08/24 15:39:24;;;;;;;2.78;1.98;;;;;;;;;;4383590;32;67502;-61
2023/08/24 15:42:31;;;;;;;2.90;2.10;;;;;;;;;;4369920;32;59903;-61
2023/08/24 15:45:29;;;;;;;4.18;2.10;;;;;;;;;;4395329;32;69211;-61
2023/08/24 15:48:22;;;;;;;4.40;2.05;;;;;;;;;;4373260;32;68667;-61
2023/08/24 15:51:25;;;;;;;3.75;2.10;;;;;;;;;;4395456;32;67976;-62
2023/08/24 15:54:21;;;;;;;5.00;2.35;;;;;;;;;;4395003;32;70843;-62
2023/08/24 15:57:14;;;;;;;3.65;2.30;;;;;;;;;;4395357;32;65917;-61
2023/08/24 16:00:04;;;;;;;3.25;2.03;;;;;;;;;;4385412;32;69344;-60
2023/08/24 16:03:08;;;;;;;5.22;2.37;;;;;;;;;;4380124;32;68187;-60
2023/08/24 16:06:05;;;;;;;4.20;2.30;;;;;;;;;;4394832;32;70483;-61
2023/08/24 16:08:54;;;;;;;4.40;2.40;;;;;;;;;;4395086;32;65600;-61
2023/08/24 16:11:46;;;;;;;5.47;2.60;;;;;;;;;;4383553;32;66717;-61
2023/08/24 16:14:33;;;;;;;3.65;2.60;;;;;;;;;;4380272;32;59074;-61
2023/08/24 16:17:27;;;;;;;4.70;2.62;;;;;;;;;;4373205;32;70454;-61
2023/08/24 16:20:18;;;;;;;4.05;2.55;;;;;;;;;;4384553;32;68321;-62
2023/08/24 16:23:12;;;;;;;6.25;2.97;;;;;;;;;;4373061;32;66886;-61
2023/08/24 16:26:01;;;;;;;6.25;2.78;;;;;;;;;;4362705;32;60058;-61
2023/08/24 16:29:13;;;;;;;3.95;2.53;;;;;;;;;;4371223;32;69148;-62
2023/08/24 16:32:08;;;;;;;5.55;3.25;;;;;;;;;;4384509;32;69578;-61
2023/08/24 16:35:17;;;;;;;;;;;;;;;;;;;;;
2023/08/24 16:38:20;;;;;;;7.18;3.00;;;;;;;;;;4375340;32;71994;-62
2023/08/24 16:41:15;;;;;;;4.25;2.47;;;;;;;;;;4354526;32;64952;-62
2023/08/24 16:44:04;;;;;;;5.97;3.30;;;;;;;;;;4372452;32;67223;-61
2023/08/24 16:46:53;;;;;;;5.70;2.90;;;;;;;;;;4384574;32;60079;-61
2023/08/24 16:49:42;;;;;;;4.68;3.15;;;;;;;;;;4372683;32;70417;-61
2023/08/24 16:52:36;;;;;;;5.00;3.45;;;;;;;;;;4372640;32;65813;-62
2023/08/24 16:55:23;;;;;;;6.22;3.50;;;;;;;;;;4372642;32;67518;-61
2023/08/24 16:58:40;;;;;;;7.30;3.60;;;;;;;;;;4374640;32;59169;-63
2023/08/24 17:01:26;;;;;;;5.80;3.72;;;;;;;;;;4384119;32;69714;-61
2023/08/24 17:04:25;;;;;;;8.70;5.10;;;;;;;;;;4383642;32;69578;-62
2023/08/24 17:07:24;;;;;;;8.73;6.25;;;;;;;;;;4350882;32;68438;-62
2023/08/24 17:10:10;;;;;;;11.30;5.57;;;;;;;;;;4361580;32;72005;-61
2023/08/24 17:12:57;;;;;;;8.95;5.90;;;;;;;;;;4358606;32;66221;-62
2023/08/24 17:15:52;;;;;;;10.27;5.90;;;;;;;;;;4372555;32;67648;-63
2023/08/24 17:18:44;;;;;;;8.15;5.50;;;;;;;;;;4361944;32;67896;-61
2023/08/24 17:21:34;;;;;;;7.68;5.07;;;;;;;;;;4372738;32;71690;-61
2023/08/24 17:24:30;;;;;;;7.12;4.82;;;;;;;;;;4383821;32;65110;-61
2023/08/24 17:27:19;;;;;;;7.72;4.93;;;;;;;;;;4371067;32;67520;-61
2023/08/24 17:30:15;;;;;;;8.25;4.62;;;;;;;;;;4372262;32;60155;-62
2023/08/24 17:33:05;;;;;;;5.68;3.90;;;;;;;;;;4372279;32;70462;-60
2023/08/24 17:35:59;;;;;;;7.12;4.22;;;;;;;;;;4358978;32;68275;-61
2023/08/24 17:38:52;;;;;;;4.72;2.87;;;;;;;;;;4372522;32;66655;-61
2023/08/24 17:41:49;;;;;;;4.10;3.08;;;;;;;;;;4361987;32;60519;-59
2023/08/24 17:44:39;;;;;;;5.05;3.10;;;;;;;;;;4383876;32;69777;-61
2023/08/24 17:47:33;;;;;;;4.93;3.20;;;;;;;;;;4384201;32;69600;-61
2023/08/24 17:50:20;;;;;;;5.07;3.25;;;;;;;;;;4371816;32;67591;-61
2023/08/24 17:53:13;;;;;;;5.03;3.10;;;;;;;;;;4371927;32;70731;-61
2023/08/24 17:56:09;;;;;;;4.90;2.90;;;;;;;;;;4383846;32;65797;-61
2023/08/24 17:58:58;;;;;;;4.28;3.10;;;;;;;;;;4383461;32;66568;-60
2023/08/24 18:01:51;;;;;;;4.03;2.92;;;;;;;;;;4359090;32;59953;-61
2023/08/24 18:04:39;;;;;;;;;;;;;;;;;;4383018;32;70579;-60
2023/08/24 18:07:35;;;;;;;4.95;3.53;;;;;;;;;;4348296;32;65065;-61
2023/08/24 18:10:28;;;;;;;7.05;3.67;;;;;;;;;;4371695;32;66649;-62
2023/08/24 18:13:17;;;;;;;4.90;3.35;;;;;;;;;;4383732;32;60247;-60
2023/08/24 18:16:08;;;;;;;5.65;3.62;;;;;;;;;;4371260;32;70163;-61
2023/08/24 18:18:57;;;;;;;5.15;3.78;;;;;;;;;;4371436;32;69149;-61
2023/08/24 18:21:47;;;;;;;5.32;3.65;;;;;;;;;;4371488;32;66660;-62
2023/08/24 18:24:45;;;;;;;5.37;3.80;;;;;;;;;;4375452;32;71775;-61
2023/08/24 18:27:33;;;;;;;7.28;4.32;;;;;;;;;;4384778;32;64896;-62
2023/08/24 18:30:20;;;;;;;6.78;4.20;;;;;;;;;;4351285;32;66729;-62
2023/08/24 18:33:14;;;;;;;5.53;3.78;;;;;;;;;;4358702;32;67832;-62
2023/08/24 18:36:09;;;;;;;6.78;4.40;;;;;;;;;;4382911;32;70754;-61
2023/08/24 18:38:56;;;;;;;7.35;4.30;;;;;;;;;;4360453;32;65963;-61
2023/08/24 18:41:48;;;;;;;;;;;;;;;;;;4371594;32;66628;-60
2023/08/24 18:44:40;;;;;;;7.53;4.35;;;;;;;;;;4383471;32;59941;-61
2023/08/24 18:47:31;;;;;;;5.97;4.07;;;;;;;;;;4349189;32;70243;-61
2023/08/24 18:50:22;;;;;;;7.00;3.87;;;;;;;;;;4372587;32;69460;-62
2023/08/24 18:53:14;;;;;;;7.68;4.62;;;;;;;;;;4360485;32;67090;-63
2023/08/24 18:56:03;;;;;;;7.03;4.47;;;;;;;;;;4383074;32;70851;-62
2023/08/24 18:58:53;;;;;;;6.80;4.37;;;;;;;;;;4358028;32;71066;-61
2023/08/24 19:01:53;;;;;;;5.72;3.90;;;;;;;;;;4382687;32;69146;-62
2023/08/24 19:04:44;;;;;;;6.28;4.40;;;;;;;;;;4359902;32;67397;-62
2023/08/24 19:07:33;;;;;;;6.28;4.30;;;;;;;;;;4357834;32;71119;-62
2023/08/24 19:10:20;;;;;;;6.95;4.97;;;;;;;;;;4370904;32;66137;-61
2023/08/24 19:13:09;;;;;;;8.20;4.65;;;;;;;;;;4382882;32;66645;-62
2023/08/24 19:16:03;;;;;;;6.60;4.30;;;;;;;;;;4384016;32;59258;-61
2023/08/24 19:18:52;;;;;;;5.68;3.70;;;;;;;;;;4360516;32;69574;-61
2023/08/24 19:21:38;;;;;;;7.82;4.40;;;;;;;;;;4370930;32;69268;-62
2023/08/24 19:24:25;;;;;;;;;;;;;;;;;;4371157;32;67590;-61
2023/08/24 19:27:14;;;;;;;7.10;3.95;;;;;;;;;;4357548;32;59421;-61
2023/08/24 19:30:19;;;;;;;8.73;5.25;;;;;;;;;;4367693;32;71280;-61
2023/08/24 19:33:08;;;;;;;8.98;4.90;;;;;;;;;;4357336;32;69970;-61
2023/08/24 19:35:58;;;;;;;6.65;4.18;;;;;;;;;;4370981;32;67739;-61
2023/08/24 19:38:44;;;;;;;6.78;4.30;;;;;;;;;;4382375;32;71329;-62
2023/08/24 19:41:44;;;;;;;8.45;4.70;;;;;;;;;;4367382;32;65901;-61
2023/08/24 19:44:41;;;;;;;7.47;4.72;;;;;;;;;;4371126;32;67630;-61
2023/08/24 19:47:30;;;;;;;6.75;4.47;;;;;;;;;;4370715;32;60103;-61
2023/08/24 19:50:21;;;;;;;6.90;5.05;;;;;;;;;;4371740;32;71611;-61
2023/08/24 19:53:22;;;;;;;10.75;6.75;;;;;;;;;;4385037;32;66162;-62
2023/08/24 19:56:13;;;;;;;11.40;6.57;;;;;;;;;;4360041;32;68360;-62
2023/08/24 19:59:06;;;;;;;10.90;6.32;;;;;;;;;;4370803;32;61377;-61
2023/08/24 20:01:55;;;;;;;9.52;6.00;;;;;;;;;;4369958;32;71310;-60
2023/08/24 20:04:45;;;;;;;7.00;4.68;;;;;;;;;;4384138;32;68295;-61
2023/08/24 20:07:47;;;;;;;6.35;4.20;;;;;;;;;;4370489;32;68208;-60
2023/08/24 20:10:45;;;;;;;7.80;5.35;;;;;;;;;;4385078;32;71363;-61
2023/08/24 20:13:34;;;;;;;11.32;6.30;;;;;;;;;;4372972;32;70569;-61
2023/08/24 20:16:23;;;;;;;7.68;4.45;;;;;;;;;;4372804;32;68437;-61
2023/08/24 20:19:11;;;;;;;8.13;4.62;;;;;;;;;;4372668;32;66909;-61
2023/08/24 20:22:01;;;;;;;7.85;4.50;;;;;;;;;;4384549;32;70649;-61
2023/08/24 20:24:50;;;;;;;8.00;4.28;;;;;;;;;;4372734;32;65034;-61
2023/08/24 20:27:43;;;;;;;6.03;4.40;;;;;;;;;;4384660;32;66995;-62
2023/08/24 20:30:37;;;;;;;4.97;3.70;;;;;;;;;;4385463;32;59264;-62
2023/08/24 20:33:26;;;;;;;5.25;3.50;;;;;;;;;;4372494;32;70420;-60
2023/08/24 20:36:12;;;;;;;4.90;3.28;;;;;;;;;;4384583;32;69662;-62
2023/08/24 20:39:08;;;;;;;4.47;3.33;;;;;;;;;;4373052;32;68059;-62
2023/08/24 20:42:16;;;;;;;4.07;3.20;;;;;;;;;;4369718;32;59831;-62
2023/08/24 20:45:05;;;;;;;6.20;3.40;;;;;;;;;;4372369;32;70233;-61
2023/08/24 20:47:59;;;;;;;3.92;2.80;;;;;;;;;;4384356;32;68380;-61
2023/08/24 20:50:53;;;;;;;4.37;2.90;;;;;;;;;;4384358;32;67651;-62
2023/08/24 20:53:49;;;;;;;4.22;2.65;;;;;;;;;;4385542;32;70884;-62
2023/08/24 20:56:36;;;;;;;5.18;2.75;;;;;;;;;;4361728;32;66098;-61
2023/08/24 20:59:33;;;;;;;3.08;2.37;;;;;;;;;;4374881;32;67689;-62
2023/08/24 21:02:27;;;;;;;3.03;2.08;;;;;;;;;;4372974;32;59154;-62
2023/08/24 21:05:16;;;;;;;3.00;2.50;;;;;;;;;;4383816;32;71573;-61
2023/08/24 21:08:06;;;;;;;3.33;2.37;;;;;;;;;;4384219;32;64923;-61
2023/08/24 21:11:03;;;;;;;3.30;2.40;;;;;;;;;;4372095;32;66911;-61
2023/08/24 21:13:52;;;;;;;3.58;2.12;;;;;;;;;;4384402;32;59216;-61
2023/08/24 21:16:38;;;;;;;3.97;2.42;;;;;;;;;;4372008;32;70387;-61
2023/08/24 21:19:44;;;;;;;3.85;2.20;;;;;;;;;;4385164;32;69239;-61
2023/08/24 21:22:33;;;;;;;2.22;1.98;;;;;;;;;;4383980;32;67826;-62
2023/08/24 21:25:22;;;;;;;3.37;1.92;;;;;;;;;;4368776;32;72510;-61
2023/08/24 21:28:11;;;;;;;4.72;1.98;;;;;;;;;;4369161;32;66797;-61
2023/08/24 21:31:01;;;;;;;3.28;2.10;;;;;;;;;;4383807;32;69352;-61
2023/08/24 21:34:03;;;;;;;2.80;1.83;;;;;;;;;;4364144;32;67675;-61
2023/08/24 21:36:59;;;;;;;2.20;1.77;;;;;;;;;;4383865;32;70736;-61
2023/08/24 21:39:50;;;;;;;3.83;1.90;;;;;;;;;;4361497;32;64835;-62
2023/08/24 21:42:40;;;;;;;4.32;2.00;;;;;;;;;;4373823;32;67862;-62
2023/08/24 21:45:31;;;;;;;2.97;2.03;;;;;;;;;;4371863;32;60169;-62
2023/08/24 21:48:36;;;;;;;3.20;2.28;;;;;;;;;;4383711;32;70483;-62
2023/08/24 21:51:22;;;;;;;5.80;2.20;;;;;;;;;;4371959;32;69515;-62
2023/08/24 21:54:16;;;;;;;2.28;2.00;;;;;;;;;;4383654;32;66672;-61
2023/08/24 21:57:02;;;;;;;3.72;1.95;;;;;;;;;;4358834;32;58368;-61
2023/08/24 21:59:49;;;;;;;1.77;1.50;;;;;;;;;;4371834;32;70597;-62
2023/08/24 22:02:48;;;;;;;4.65;1.90;;;;;;;;;;4383446;32;68922;-61
2023/08/24 22:05:38;;;;;;;2.22;1.77;;;;;;;;;;4385088;32;67386;-62
2023/08/24 22:08:27;;;;;;;2.95;1.77;;;;;;;;;;4337089;32;71220;-62
2023/08/24 22:11:19;;;;;;;2.28;1.60;;;;;;;;;;4372119;32;65175;-62
2023/08/24 22:14:15;;;;;;;3.05;2.10;;;;;;;;;;4382939;32;67846;-62
2023/08/24 22:17:13;;;;;;;2.87;1.85;;;;;;;;;;4350174;32;57333;-61
2023/08/24 22:20:09;;;;;;;3.55;1.67;;;;;;;;;;4383263;32;70109;-61
2023/08/24 22:23:06;;;;;;;4.55;1.87;;;;;;;;;;4383647;32;65830;-61
2023/08/24 22:25:53;;;;;;;2.72;2.10;;;;;;;;;;4383684;32;68174;-61
2023/08/24 22:28:49;;;;;;;2.50;1.90;;;;;;;;;;4373231;32;60255;-61
2023/08/24 22:31:42;;;;;;;2.15;1.77;;;;;;;;;;4374037;32;71690;-60
2023/08/24 22:34:29;;;;;;;3.03;2.10;;;;;;;;;;4403338;32;68768;-62
2023/08/24 22:37:42;;;;;;;3.50;1.92;;;;;;;;;;4381851;32;67094;-60
2023/08/24 22:40:36;;;;;;;4.18;2.15;;;;;;;;;;4395050;32;73033;-61
2023/08/24 22:43:24;;;;;;;2.78;2.25;;;;;;;;;;4406488;32;65973;-61
2023/08/24 22:46:31;;;;;;;2.47;1.70;;;;;;;;;;4396689;32;69128;-67
2023/08/24 22:49:30;;;;;;;;;;;;;;;;;;;;;
2023/08/24 22:52:19;;;;;;;3.28;1.92;;;;;;;;;;4405874;32;71239;-61
2023/08/24 22:55:13;;;;;;;3.25;1.98;;;;;;;;;;4394520;32;66063;-61
2023/08/24 22:58:03;;;;;;;2.80;1.90;;;;;;;;;;4404296;32;68532;-61
2023/08/24 23:00:52;;;;;;;3.00;1.92;;;;;;;;;;4394468;32;60120;-60
2023/08/24 23:03:43;;;;;;;3.85;2.03;;;;;;;;;;4371190;32;70357;-61
2023/08/24 23:07:14;;;;;;;3.90;2.33;;;;;;;;;;4370713;32;70273;-62
2023/08/24 23:10:09;;;;;;;3.17;2.30;;;;;;;;;;4339955;32;67545;-62
2023/08/24 23:13:01;;;;;;;4.82;1.73;;;;;;;;;;4371904;32;59049;-61
2023/08/24 23:16:04;;;;;;;4.05;2.10;;;;;;;;;;4382573;32;70428;-62
2023/08/24 23:18:55;;;;;;;4.97;2.30;;;;;;;;;;4371484;32;70195;-61
2023/08/24 23:21:43;;;;;;;4.75;2.00;;;;;;;;;;4367910;32;68399;-61
2023/08/24 23:24:37;;;;;;;2.85;2.15;;;;;;;;;;4358238;32;72318;-61
2023/08/24 23:27:29;;;;;;;3.30;1.77;;;;;;;;;;4350073;32;66810;-61
2023/08/24 23:30:25;;;;;;;4.87;2.28;;;;;;;;;;4373942;32;66908;-62
2023/08/24 23:33:26;;;;;;;5.30;2.10;;;;;;;;;;4385350;32;60724;-61
2023/08/24 23:36:26;;;;;;;6.07;2.53;;;;;;;;;;4374495;32;70383;-61
2023/08/24 23:39:30;;;;;;;3.40;1.95;;;;;;;;;;4385269;32;66289;-61
2023/08/24 23:42:27;;;;;;;3.58;2.10;;;;;;;;;;3848563;37;43494;-62
2023/08/24 23:45:35;;;;;;;3.15;1.98;;;;;;;;;;4411246;32;59963;-61
2023/08/24 23:48:33;;;;;;;4.90;2.17;;;;;;;;;;4409163;32;71298;-61
2023/08/24 23:51:40;;;;;;;4.90;2.37;;;;;;;;;;4388115;32;70127;-61
2023/08/24 23:54:35;;;;;;;7.25;2.97;;;;;;;;;;4399390;32;67691;-62
2023/08/24 23:57:29;;;;;;;5.55;2.33;;;;;;;;;;4409103;32;72413;-61
